sensor_id;sensor_type;location;lat;lon;timestamp;temperature;humidity
11700;DHT22;5906;51.660;6.674;2024-02-21T00:00:47;9.50;80.80
11700;DHT22;5906;51.660;6.674;2024-02-21T00:03:14;9.50;80.70
11700;DHT22;5906;51.660;6.674;2024-02-21T00:05:41;9.50;80.80
11700;DHT22;5906;51.660;6.674;2024-02-21T00:08:07;9.50;80.80
11700;DHT22;5906;51.660;6.674;2024-02-21T00:10:35;9.50;81.00
11700;DHT22;5906;51.660;6.674;2024-02-21T00:13:02;9.50;81.00
11700;DHT22;5906;51.660;6.674;2024-02-21T00:15:29;9.50;81.00
11700;DHT22;5906;51.660;6.674;2024-02-21T00:17:57;9.50;80.90
11700;DHT22;5906;51.660;6.674;2024-02-21T00:20:23;9.40;81.00
11700;DHT22;5906;51.660;6.674;2024-02-21T00:22:52;9.50;80.80
11700;DHT22;5906;51.660;6.674;2024-02-21T00:25:19;9.40;81.10
11700;DHT22;5906;51.660;6.674;2024-02-21T00:27:46;9.40;81.20
11700;DHT22;5906;51.660;6.674;2024-02-21T00:30:13;9.40;81.10
11700;DHT22;5906;51.660;6.674;2024-02-21T00:32:40;9.40;81.30
11700;DHT22;5906;51.660;6.674;2024-02-21T00:35:07;9.40;80.90
11700;DHT22;5906;51.660;6.674;2024-02-21T00:37:34;9.30;81.40
11700;DHT22;5906;51.660;6.674;2024-02-21T00:40:01;9.40;81.20
11700;DHT22;5906;51.660;6.674;2024-02-21T00:42:28;9.40;81.50
11700;DHT22;5906;51.660;6.674;2024-02-21T00:44:55;9.40;81.00
11700;DHT22;5906;51.660;6.674;2024-02-21T00:47:26;9.40;81.10
11700;DHT22;5906;51.660;6.674;2024-02-21T00:49:53;9.50;81.10
11700;DHT22;5906;51.660;6.674;2024-02-21T00:52:20;9.40;81.10
11700;DHT22;5906;51.660;6.674;2024-02-21T00:54:47;9.40;81.50
11700;DHT22;5906;51.660;6.674;2024-02-21T00:57:20;9.40;80.90
11700;DHT22;5906;51.660;6.674;2024-02-21T01:00:00;9.40;80.90
11700;DHT22;5906;51.660;6.674;2024-02-21T01:02:26;9.40;81.00
11700;DHT22;5906;51.660;6.674;2024-02-21T01:04:53;9.40;80.90
11700;DHT22;5906;51.660;6.674;2024-02-21T01:07:20;9.40;81.00
11700;DHT22;5906;51.660;6.674;2024-02-21T01:09:47;9.40;80.70
11700;DHT22;5906;51.660;6.674;2024-02-21T01:12:14;9.40;81.00
11700;DHT22;5906;51.660;6.674;2024-02-21T01:14:41;9.40;80.70
11700;DHT22;5906;51.660;6.674;2024-02-21T01:17:08;9.40;80.70
11700;DHT22;5906;51.660;6.674;2024-02-21T01:19:38;9.40;80.70
11700;DHT22;5906;51.660;6.674;2024-02-21T01:22:05;9.40;80.90
11700;DHT22;5906;51.660;6.674;2024-02-21T01:24:32;9.40;80.80
11700;DHT22;5906;51.660;6.674;2024-02-21T01:26:58;9.40;81.00
11700;DHT22;5906;51.660;6.674;2024-02-21T01:29:25;9.40;80.80
11700;DHT22;5906;51.660;6.674;2024-02-21T01:31:52;9.40;80.60
11700;DHT22;5906;51.660;6.674;2024-02-21T01:34:19;9.40;80.80
11700;DHT22;5906;51.660;6.674;2024-02-21T01:36:46;9.40;80.80
11700;DHT22;5906;51.660;6.674;2024-02-21T01:39:12;9.40;80.80
11700;DHT22;5906;51.660;6.674;2024-02-21T01:41:39;9.30;81.00
11700;DHT22;5906;51.660;6.674;2024-02-21T01:44:08;9.20;81.20
11700;DHT22;5906;51.660;6.674;2024-02-21T01:46:36;9.20;81.60
11700;DHT22;5906;51.660;6.674;2024-02-21T01:49:06;9.30;81.10
11700;DHT22;5906;51.660;6.674;2024-02-21T01:51:33;9.20;81.40
11700;DHT22;5906;51.660;6.674;2024-02-21T01:54:00;9.30;81.40
11700;DHT22;5906;51.660;6.674;2024-02-21T01:56:27;9.30;81.10
11700;DHT22;5906;51.660;6.674;2024-02-21T01:58:55;9.20;81.70
11700;DHT22;5906;51.660;6.674;2024-02-21T02:01:22;9.30;81.50
11700;DHT22;5906;51.660;6.674;2024-02-21T02:03:50;9.20;81.50
11700;DHT22;5906;51.660;6.674;2024-02-21T02:06:17;9.30;81.10
11700;DHT22;5906;51.660;6.674;2024-02-21T02:08:44;9.20;81.30
11700;DHT22;5906;51.660;6.674;2024-02-21T02:11:13;9.20;81.30
11700;DHT22;5906;51.660;6.674;2024-02-21T02:13:40;9.20;81.20
11700;DHT22;5906;51.660;6.674;2024-02-21T02:16:07;9.10;81.40
11700;DHT22;5906;51.660;6.674;2024-02-21T02:18:34;9.10;81.70
11700;DHT22;5906;51.660;6.674;2024-02-21T02:21:01;9.10;81.40
11700;DHT22;5906;51.660;6.674;2024-02-21T02:23:32;9.00;81.50
11700;DHT22;5906;51.660;6.674;2024-02-21T02:26:00;9.00;81.80
11700;DHT22;5906;51.660;6.674;2024-02-21T02:28:30;8.90;81.80
11700;DHT22;5906;51.660;6.674;2024-02-21T02:30:57;8.90;81.90
11700;DHT22;5906;51.660;6.674;2024-02-21T02:33:24;8.90;82.00
11700;DHT22;5906;51.660;6.674;2024-02-21T02:35:51;8.90;82.20
11700;DHT22;5906;51.660;6.674;2024-02-21T02:38:18;8.90;82.00
11700;DHT22;5906;51.660;6.674;2024-02-21T02:40:47;9.00;81.70
11700;DHT22;5906;51.660;6.674;2024-02-21T02:43:15;9.00;81.40
11700;DHT22;5906;51.660;6.674;2024-02-21T02:45:59;8.90;81.80
11700;DHT22;5906;51.660;6.674;2024-02-21T02:48:26;8.90;81.90
11700;DHT22;5906;51.660;6.674;2024-02-21T02:50:53;8.90;82.50
11700;DHT22;5906;51.660;6.674;2024-02-21T02:53:20;8.90;82.20
11700;DHT22;5906;51.660;6.674;2024-02-21T02:55:47;9.00;81.70
11700;DHT22;5906;51.660;6.674;2024-02-21T02:58:14;9.10;81.20
11700;DHT22;5906;51.660;6.674;2024-02-21T03:00:41;9.10;81.20
11700;DHT22;5906;51.660;6.674;2024-02-21T03:03:08;9.10;80.90
11700;DHT22;5906;51.660;6.674;2024-02-21T03:05:35;9.10;80.90
11700;DHT22;5906;51.660;6.674;2024-02-21T03:08:02;9.10;81.10
11700;DHT22;5906;51.660;6.674;2024-02-21T03:10:33;9.10;81.30
11700;DHT22;5906;51.660;6.674;2024-02-21T03:13:00;9.10;80.90
11700;DHT22;5906;51.660;6.674;2024-02-21T03:15:27;9.20;80.70
11700;DHT22;5906;51.660;6.674;2024-02-21T03:17:57;9.20;80.60
11700;DHT22;5906;51.660;6.674;2024-02-21T03:20:24;9.20;80.30
11700;DHT22;5906;51.660;6.674;2024-02-21T03:22:50;9.20;80.30
11700;DHT22;5906;51.660;6.674;2024-02-21T03:25:17;9.20;80.20
11700;DHT22;5906;51.660;6.674;2024-02-21T03:27:46;9.20;80.30
11700;DHT22;5906;51.660;6.674;2024-02-21T03:30:13;9.20;80.70
11700;DHT22;5906;51.660;6.674;2024-02-21T03:32:40;9.20;80.40
11700;DHT22;5906;51.660;6.674;2024-02-21T03:35:07;9.20;80.50
11700;DHT22;5906;51.660;6.674;2024-02-21T03:37:34;9.20;80.30
11700;DHT22;5906;51.660;6.674;2024-02-21T03:40:01;9.20;80.30
11700;DHT22;5906;51.660;6.674;2024-02-21T03:42:28;9.20;80.50
11700;DHT22;5906;51.660;6.674;2024-02-21T03:44:58;9.30;80.00
11700;DHT22;5906;51.660;6.674;2024-02-21T03:47:27;9.30;80.00
11700;DHT22;5906;51.660;6.674;2024-02-21T03:49:54;9.30;79.70
11700;DHT22;5906;51.660;6.674;2024-02-21T03:52:21;9.30;79.80
11700;DHT22;5906;51.660;6.674;2024-02-21T03:54:48;9.30;79.80
11700;DHT22;5906;51.660;6.674;2024-02-21T03:57:17;9.30;79.80
11700;DHT22;5906;51.660;6.674;2024-02-21T03:59:44;9.20;80.10
11700;DHT22;5906;51.660;6.674;2024-02-21T04:02:11;9.20;80.20
11700;DHT22;5906;51.660;6.674;2024-02-21T04:04:45;9.30;80.30
11700;DHT22;5906;51.660;6.674;2024-02-21T04:07:14;9.30;80.10
11700;DHT22;5906;51.660;6.674;2024-02-21T04:09:41;9.30;79.90
11700;DHT22;5906;51.660;6.674;2024-02-21T04:12:11;9.40;79.50
11700;DHT22;5906;51.660;6.674;2024-02-21T04:14:37;9.30;79.60
11700;DHT22;5906;51.660;6.674;2024-02-21T04:17:08;9.30;79.60
11700;DHT22;5906;51.660;6.674;2024-02-21T04:19:35;9.30;79.30
11700;DHT22;5906;51.660;6.674;2024-02-21T04:22:02;9.30;79.30
11700;DHT22;5906;51.660;6.674;2024-02-21T04:24:28;9.30;79.50
11700;DHT22;5906;51.660;6.674;2024-02-21T04:26:55;9.30;79.30
11700;DHT22;5906;51.660;6.674;2024-02-21T04:29:22;9.30;79.40
11700;DHT22;5906;51.660;6.674;2024-02-21T04:31:50;9.30;79.20
11700;DHT22;5906;51.660;6.674;2024-02-21T04:34:17;9.30;79.30
11700;DHT22;5906;51.660;6.674;2024-02-21T04:36:44;9.30;79.60
11700;DHT22;5906;51.660;6.674;2024-02-21T04:39:11;9.30;79.30
11700;DHT22;5906;51.660;6.674;2024-02-21T04:41:38;9.30;79.40
11700;DHT22;5906;51.660;6.674;2024-02-21T04:44:05;9.30;79.30
11700;DHT22;5906;51.660;6.674;2024-02-21T04:46:32;9.20;79.30
11700;DHT22;5906;51.660;6.674;2024-02-21T04:49:01;9.30;79.50
11700;DHT22;5906;51.660;6.674;2024-02-21T04:51:28;9.30;79.50
11700;DHT22;5906;51.660;6.674;2024-02-21T04:53:55;9.30;79.40
11700;DHT22;5906;51.660;6.674;2024-02-21T04:56:22;9.30;79.50
11700;DHT22;5906;51.660;6.674;2024-02-21T04:58:49;9.30;79.40
11700;DHT22;5906;51.660;6.674;2024-02-21T05:01:16;9.30;79.80
11700;DHT22;5906;51.660;6.674;2024-02-21T05:03:43;9.20;79.20
11700;DHT22;5906;51.660;6.674;2024-02-21T05:06:10;9.20;79.10
11700;DHT22;5906;51.660;6.674;2024-02-21T05:08:36;9.20;79.20
11700;DHT22;5906;51.660;6.674;2024-02-21T05:11:03;9.20;79.00
11700;DHT22;5906;51.660;6.674;2024-02-21T05:13:30;9.30;79.00
11700;DHT22;5906;51.660;6.674;2024-02-21T05:15:57;9.30;78.70
11700;DHT22;5906;51.660;6.674;2024-02-21T05:18:28;9.30;79.10
11700;DHT22;5906;51.660;6.674;2024-02-21T05:20:55;9.40;78.70
11700;DHT22;5906;51.660;6.674;2024-02-21T05:23:22;9.30;78.90
11700;DHT22;5906;51.660;6.674;2024-02-21T05:25:49;9.30;79.00
11700;DHT22;5906;51.660;6.674;2024-02-21T05:28:18;9.20;78.90
11700;DHT22;5906;51.660;6.674;2024-02-21T05:30:45;9.20;79.00
11700;DHT22;5906;51.660;6.674;2024-02-21T05:33:12;9.30;78.70
11700;DHT22;5906;51.660;6.674;2024-02-21T05:35:40;9.30;78.60
11700;DHT22;5906;51.660;6.674;2024-02-21T05:38:09;9.30;78.40
11700;DHT22;5906;51.660;6.674;2024-02-21T05:40:38;9.30;78.70
11700;DHT22;5906;51.660;6.674;2024-02-21T05:43:07;9.30;78.80
11700;DHT22;5906;51.660;6.674;2024-02-21T05:45:35;9.30;78.30
11700;DHT22;5906;51.660;6.674;2024-02-21T05:48:03;9.40;78.10
11700;DHT22;5906;51.660;6.674;2024-02-21T05:50:50;9.30;78.10
11700;DHT22;5906;51.660;6.674;2024-02-21T05:53:17;9.40;78.00
11700;DHT22;5906;51.660;6.674;2024-02-21T05:55:44;9.40;78.30
11700;DHT22;5906;51.660;6.674;2024-02-21T05:58:30;9.30;78.30
11700;DHT22;5906;51.660;6.674;2024-02-21T06:01:01;9.30;78.60
11700;DHT22;5906;51.660;6.674;2024-02-21T06:03:30;9.20;78.20
11700;DHT22;5906;51.660;6.674;2024-02-21T06:06:01;9.20;78.60
11700;DHT22;5906;51.660;6.674;2024-02-21T06:08:28;9.20;79.00
11700;DHT22;5906;51.660;6.674;2024-02-21T06:10:55;9.20;79.00
11700;DHT22;5906;51.660;6.674;2024-02-21T06:13:26;9.20;79.10
11700;DHT22;5906;51.660;6.674;2024-02-21T06:15:53;9.30;78.80
11700;DHT22;5906;51.660;6.674;2024-02-21T06:18:20;9.30;78.70
11700;DHT22;5906;51.660;6.674;2024-02-21T06:20:47;9.20;78.90
11700;DHT22;5906;51.660;6.674;2024-02-21T06:23:16;9.20;79.20
11700;DHT22;5906;51.660;6.674;2024-02-21T06:25:46;9.20;79.00
11700;DHT22;5906;51.660;6.674;2024-02-21T06:28:17;9.10;79.50
11700;DHT22;5906;51.660;6.674;2024-02-21T06:30:44;9.10;79.80
11700;DHT22;5906;51.660;6.674;2024-02-21T06:33:14;9.10;79.40
11700;DHT22;5906;51.660;6.674;2024-02-21T06:35:41;9.10;80.10
11700;DHT22;5906;51.660;6.674;2024-02-21T06:38:09;9.20;80.00
11700;DHT22;5906;51.660;6.674;2024-02-21T06:40:37;9.20;79.90
11700;DHT22;5906;51.660;6.674;2024-02-21T06:43:09;9.20;80.10
11700;DHT22;5906;51.660;6.674;2024-02-21T06:45:36;9.30;79.40
11700;DHT22;5906;51.660;6.674;2024-02-21T06:48:03;9.30;78.80
11700;DHT22;5906;51.660;6.674;2024-02-21T06:50:30;9.20;78.90
11700;DHT22;5906;51.660;6.674;2024-02-21T06:52:57;9.20;78.80
11700;DHT22;5906;51.660;6.674;2024-02-21T06:55:24;9.10;79.30
11700;DHT22;5906;51.660;6.674;2024-02-21T06:57:51;9.10;79.50
11700;DHT22;5906;51.660;6.674;2024-02-21T07:00:18;9.00;80.00
11700;DHT22;5906;51.660;6.674;2024-02-21T07:02:48;8.90;80.30
11700;DHT22;5906;51.660;6.674;2024-02-21T07:05:15;8.90;80.10
11700;DHT22;5906;51.660;6.674;2024-02-21T07:07:42;8.90;79.90
11700;DHT22;5906;51.660;6.674;2024-02-21T07:10:10;9.00;79.90
11700;DHT22;5906;51.660;6.674;2024-02-21T07:12:38;9.00;79.80
11700;DHT22;5906;51.660;6.674;2024-02-21T07:15:08;8.90;80.00
11700;DHT22;5906;51.660;6.674;2024-02-21T07:17:35;8.90;80.00
11700;DHT22;5906;51.660;6.674;2024-02-21T07:20:02;9.00;80.00
11700;DHT22;5906;51.660;6.674;2024-02-21T07:22:29;9.00;79.80
11700;DHT22;5906;51.660;6.674;2024-02-21T07:24:56;9.00;79.90
11700;DHT22;5906;51.660;6.674;2024-02-21T07:27:23;9.10;79.80
11700;DHT22;5906;51.660;6.674;2024-02-21T07:29:54;9.10;79.80
11700;DHT22;5906;51.660;6.674;2024-02-21T07:32:21;9.10;79.90
11700;DHT22;5906;51.660;6.674;2024-02-21T07:34:48;9.10;80.00
11700;DHT22;5906;51.660;6.674;2024-02-21T07:37:15;9.10;80.00
11700;DHT22;5906;51.660;6.674;2024-02-21T07:39:42;9.10;79.90
11700;DHT22;5906;51.660;6.674;2024-02-21T07:42:09;9.10;80.20
11700;DHT22;5906;51.660;6.674;2024-02-21T07:44:36;9.10;79.80
11700;DHT22;5906;51.660;6.674;2024-02-21T07:47:03;9.10;80.10
11700;DHT22;5906;51.660;6.674;2024-02-21T07:49:30;9.20;79.80
11700;DHT22;5906;51.660;6.674;2024-02-21T07:52:00;9.20;79.70
11700;DHT22;5906;51.660;6.674;2024-02-21T07:54:26;9.20;79.60
11700;DHT22;5906;51.660;6.674;2024-02-21T07:56:53;9.20;79.60
11700;DHT22;5906;51.660;6.674;2024-02-21T07:59:20;9.20;79.90
11700;DHT22;5906;51.660;6.674;2024-02-21T08:01:47;9.10;80.10
11700;DHT22;5906;51.660;6.674;2024-02-21T08:04:15;9.20;79.90
11700;DHT22;5906;51.660;6.674;2024-02-21T08:06:42;9.30;79.40
11700;DHT22;5906;51.660;6.674;2024-02-21T08:09:12;9.30;79.40
11700;DHT22;5906;51.660;6.674;2024-02-21T08:11:38;9.30;79.10
11700;DHT22;5906;51.660;6.674;2024-02-21T08:14:06;9.30;79.00
11700;DHT22;5906;51.660;6.674;2024-02-21T08:16:33;9.30;78.90
11700;DHT22;5906;51.660;6.674;2024-02-21T08:19:00;9.40;78.60
11700;DHT22;5906;51.660;6.674;2024-02-21T08:21:28;9.40;78.40
11700;DHT22;5906;51.660;6.674;2024-02-21T08:23:55;9.40;78.30
11700;DHT22;5906;51.660;6.674;2024-02-21T08:26:22;9.40;78.10
11700;DHT22;5906;51.660;6.674;2024-02-21T08:28:49;9.50;77.90
11700;DHT22;5906;51.660;6.674;2024-02-21T08:31:20;9.50;78.00
11700;DHT22;5906;51.660;6.674;2024-02-21T08:33:47;9.60;77.80
11700;DHT22;5906;51.660;6.674;2024-02-21T08:36:18;9.60;77.80
11700;DHT22;5906;51.660;6.674;2024-02-21T08:38:49;9.70;77.20
11700;DHT22;5906;51.660;6.674;2024-02-21T08:41:17;9.80;76.90
11700;DHT22;5906;51.660;6.674;2024-02-21T08:43:44;9.80;76.50
11700;DHT22;5906;51.660;6.674;2024-02-21T08:46:11;9.90;76.50
11700;DHT22;5906;51.660;6.674;2024-02-21T08:48:38;9.90;76.20
11700;DHT22;5906;51.660;6.674;2024-02-21T08:51:06;10.00;75.80
11700;DHT22;5906;51.660;6.674;2024-02-21T08:53:33;10.00;75.50
11700;DHT22;5906;51.660;6.674;2024-02-21T08:56:00;10.00;75.20
11700;DHT22;5906;51.660;6.674;2024-02-21T08:58:27;10.10;75.40
11700;DHT22;5906;51.660;6.674;2024-02-21T09:00:54;10.10;75.20
11700;DHT22;5906;51.660;6.674;2024-02-21T09:03:22;10.10;74.90
11700;DHT22;5906;51.660;6.674;2024-02-21T09:05:49;10.10;74.70
11700;DHT22;5906;51.660;6.674;2024-02-21T09:08:16;10.10;75.10
11700;DHT22;5906;51.660;6.674;2024-02-21T09:10:43;10.10;74.60
11700;DHT22;5906;51.660;6.674;2024-02-21T09:13:10;10.10;74.70
11700;DHT22;5906;51.660;6.674;2024-02-21T09:15:37;10.10;74.80
11700;DHT22;5906;51.660;6.674;2024-02-21T09:18:04;10.00;75.10
11700;DHT22;5906;51.660;6.674;2024-02-21T09:20:31;10.00;75.10
11700;DHT22;5906;51.660;6.674;2024-02-21T09:22:58;10.00;75.40
11700;DHT22;5906;51.660;6.674;2024-02-21T09:25:25;10.00;75.90
11700;DHT22;5906;51.660;6.674;2024-02-21T09:27:54;10.10;75.80
11700;DHT22;5906;51.660;6.674;2024-02-21T09:30:21;10.10;75.40
11700;DHT22;5906;51.660;6.674;2024-02-21T09:32:48;10.00;75.90
11700;DHT22;5906;51.660;6.674;2024-02-21T09:35:15;10.00;75.80
11700;DHT22;5906;51.660;6.674;2024-02-21T09:37:43;10.00;75.90
11700;DHT22;5906;51.660;6.674;2024-02-21T09:40:10;10.00;75.50
11700;DHT22;5906;51.660;6.674;2024-02-21T09:42:40;10.10;75.20
11700;DHT22;5906;51.660;6.674;2024-02-21T09:45:27;10.10;75.60
11700;DHT22;5906;51.660;6.674;2024-02-21T09:51:10;10.10;75.10
11700;DHT22;5906;51.660;6.674;2024-02-21T09:53:40;10.10;75.50
11700;DHT22;5906;51.660;6.674;2024-02-21T09:56:14;10.20;75.20
11700;DHT22;5906;51.660;6.674;2024-02-21T09:58:43;10.20;74.90
11700;DHT22;5906;51.660;6.674;2024-02-21T10:01:10;10.10;74.90
11700;DHT22;5906;51.660;6.674;2024-02-21T10:03:55;10.10;75.00
11700;DHT22;5906;51.660;6.674;2024-02-21T10:06:28;10.00;75.30
11700;DHT22;5906;51.660;6.674;2024-02-21T10:08:56;9.90;75.70
11700;DHT22;5906;51.660;6.674;2024-02-21T10:11:26;9.80;77.20
11700;DHT22;5906;51.660;6.674;2024-02-21T10:14:07;9.80;78.40
11700;DHT22;5906;51.660;6.674;2024-02-21T10:16:34;9.80;78.20
11700;DHT22;5906;51.660;6.674;2024-02-21T10:19:03;9.90;78.30
11700;DHT22;5906;51.660;6.674;2024-02-21T10:21:30;10.00;77.80
11700;DHT22;5906;51.660;6.674;2024-02-21T10:23:57;10.10;76.50
11700;DHT22;5906;51.660;6.674;2024-02-21T10:26:24;10.30;75.80
11700;DHT22;5906;51.660;6.674;2024-02-21T10:28:51;10.30;75.30
11700;DHT22;5906;51.660;6.674;2024-02-21T10:31:26;10.20;75.40
11700;DHT22;5906;51.660;6.674;2024-02-21T10:33:55;10.20;75.40
11700;DHT22;5906;51.660;6.674;2024-02-21T10:36:23;10.10;75.20
11700;DHT22;5906;51.660;6.674;2024-02-21T10:38:53;10.00;75.80
11700;DHT22;5906;51.660;6.674;2024-02-21T10:41:22;10.10;75.50
11700;DHT22;5906;51.660;6.674;2024-02-21T10:43:54;10.00;75.30
11700;DHT22;5906;51.660;6.674;2024-02-21T10:46:23;10.10;75.50
11700;DHT22;5906;51.660;6.674;2024-02-21T10:49:10;10.10;75.40
11700;DHT22;5906;51.660;6.674;2024-02-21T10:51:43;10.10;74.90
11700;DHT22;5906;51.660;6.674;2024-02-21T10:54:30;10.10;74.30
11700;DHT22;5906;51.660;6.674;2024-02-21T10:57:00;10.10;74.00
11700;DHT22;5906;51.660;6.674;2024-02-21T10:59:30;10.10;74.10
11700;DHT22;5906;51.660;6.674;2024-02-21T11:01:58;10.20;74.10
11700;DHT22;5906;51.660;6.674;2024-02-21T11:04:26;10.20;73.70
11700;DHT22;5906;51.660;6.674;2024-02-21T11:06:54;10.30;73.00
11700;DHT22;5906;51.660;6.674;2024-02-21T11:09:30;10.40;72.30
11700;DHT22;5906;51.660;6.674;2024-02-21T11:12:02;10.40;72.20
11700;DHT22;5906;51.660;6.674;2024-02-21T11:14:30;10.40;71.50
11700;DHT22;5906;51.660;6.674;2024-02-21T11:17:17;10.60;71.50
11700;DHT22;5906;51.660;6.674;2024-02-21T11:19:45;10.70;71.60
11700;DHT22;5906;51.660;6.674;2024-02-21T11:22:17;10.80;70.30
11700;DHT22;5906;51.660;6.674;2024-02-21T11:24:44;10.90;69.60
11700;DHT22;5906;51.660;6.674;2024-02-21T11:29:53;10.90;69.10
11700;DHT22;5906;51.660;6.674;2024-02-21T11:32:21;10.90;69.40
11700;DHT22;5906;51.660;6.674;2024-02-21T11:34:59;10.90;69.10
11700;DHT22;5906;51.660;6.674;2024-02-21T11:37:35;10.90;69.40
11700;DHT22;5906;51.660;6.674;2024-02-21T11:40:10;11.00;69.20
11700;DHT22;5906;51.660;6.674;2024-02-21T11:42:38;11.00;68.60
11700;DHT22;5906;51.660;6.674;2024-02-21T11:45:06;11.00;68.00
11700;DHT22;5906;51.660;6.674;2024-02-21T11:47:35;11.10;68.50
11700;DHT22;5906;51.660;6.674;2024-02-21T11:50:24;11.10;67.90
11700;DHT22;5906;51.660;6.674;2024-02-21T11:52:54;11.20;68.10
11700;DHT22;5906;51.660;6.674;2024-02-21T11:55:22;11.20;67.90
11700;DHT22;5906;51.660;6.674;2024-02-21T11:57:57;11.30;67.40
11700;DHT22;5906;51.660;6.674;2024-02-21T12:00:25;11.30;67.40
11700;DHT22;5906;51.660;6.674;2024-02-21T12:02:54;11.30;67.70
11700;DHT22;5906;51.660;6.674;2024-02-21T12:05:25;11.30;67.60
11700;DHT22;5906;51.660;6.674;2024-02-21T12:07:56;11.30;67.90
11700;DHT22;5906;51.660;6.674;2024-02-21T12:10:27;11.30;67.90
11700;DHT22;5906;51.660;6.674;2024-02-21T12:13:30;11.40;67.60
11700;DHT22;5906;51.660;6.674;2024-02-21T12:15:58;11.40;67.40
11700;DHT22;5906;51.660;6.674;2024-02-21T12:18:25;11.40;67.40
11700;DHT22;5906;51.660;6.674;2024-02-21T12:20:53;11.30;67.60
11700;DHT22;5906;51.660;6.674;2024-02-21T12:23:20;11.20;67.80
11700;DHT22;5906;51.660;6.674;2024-02-21T12:25:51;11.30;67.50
11700;DHT22;5906;51.660;6.674;2024-02-21T12:28:37;11.20;67.60
11700;DHT22;5906;51.660;6.674;2024-02-21T12:31:04;11.20;67.60
11700;DHT22;5906;51.660;6.674;2024-02-21T12:33:31;11.30;67.20
11700;DHT22;5906;51.660;6.674;2024-02-21T12:36:02;11.30;67.50
11700;DHT22;5906;51.660;6.674;2024-02-21T12:38:30;11.30;67.70
11700;DHT22;5906;51.660;6.674;2024-02-21T12:40:57;11.40;67.30
11700;DHT22;5906;51.660;6.674;2024-02-21T12:43:25;11.40;66.60
11700;DHT22;5906;51.660;6.674;2024-02-21T12:45:54;11.50;67.00
11700;DHT22;5906;51.660;6.674;2024-02-21T12:48:21;11.60;65.70
11700;DHT22;5906;51.660;6.674;2024-02-21T12:50:50;11.60;66.00
11700;DHT22;5906;51.660;6.674;2024-02-21T12:53:21;11.70;66.00
11700;DHT22;5906;51.660;6.674;2024-02-21T12:56:00;11.80;65.60
11700;DHT22;5906;51.660;6.674;2024-02-21T12:58:27;11.80;65.20
11700;DHT22;5906;51.660;6.674;2024-02-21T13:00:55;11.80;65.00
11700;DHT22;5906;51.660;6.674;2024-02-21T13:03:23;11.80;64.90
11700;DHT22;5906;51.660;6.674;2024-02-21T13:05:50;11.90;64.80
11700;DHT22;5906;51.660;6.674;2024-02-21T13:08:17;11.90;64.80
11700;DHT22;5906;51.660;6.674;2024-02-21T13:10:45;11.90;65.10
11700;DHT22;5906;51.660;6.674;2024-02-21T13:13:12;12.00;64.30
11700;DHT22;5906;51.660;6.674;2024-02-21T13:15:39;12.00;63.90
11700;DHT22;5906;51.660;6.674;2024-02-21T13:18:09;11.90;63.50
11700;DHT22;5906;51.660;6.674;2024-02-21T13:20:37;11.90;63.20
11700;DHT22;5906;51.660;6.674;2024-02-21T13:23:04;11.90;63.80
11700;DHT22;5906;51.660;6.674;2024-02-21T13:25:31;11.90;63.70
11700;DHT22;5906;51.660;6.674;2024-02-21T13:27:58;11.90;63.30
11700;DHT22;5906;51.660;6.674;2024-02-21T13:30:25;11.90;63.50
11700;DHT22;5906;51.660;6.674;2024-02-21T13:32:52;12.00;63.00
11700;DHT22;5906;51.660;6.674;2024-02-21T13:35:19;12.00;62.40
11700;DHT22;5906;51.660;6.674;2024-02-21T13:37:46;12.00;62.00
11700;DHT22;5906;51.660;6.674;2024-02-21T13:40:13;12.00;61.70
11700;DHT22;5906;51.660;6.674;2024-02-21T13:42:43;11.90;62.60
11700;DHT22;5906;51.660;6.674;2024-02-21T13:45:09;11.90;62.50
11700;DHT22;5906;51.660;6.674;2024-02-21T13:47:36;11.90;62.80
11700;DHT22;5906;51.660;6.674;2024-02-21T13:50:05;11.90;62.70
11700;DHT22;5906;51.660;6.674;2024-02-21T13:52:37;11.90;62.20
11700;DHT22;5906;51.660;6.674;2024-02-21T13:55:04;11.90;62.40
11700;DHT22;5906;51.660;6.674;2024-02-21T13:57:36;11.80;62.60
11700;DHT22;5906;51.660;6.674;2024-02-21T14:00:11;11.90;62.80
11700;DHT22;5906;51.660;6.674;2024-02-21T14:02:44;11.90;62.50
11700;DHT22;5906;51.660;6.674;2024-02-21T14:05:11;11.90;62.90
11700;DHT22;5906;51.660;6.674;2024-02-21T14:07:38;11.90;63.60
11700;DHT22;5906;51.660;6.674;2024-02-21T14:10:08;12.00;63.00
11700;DHT22;5906;51.660;6.674;2024-02-21T14:12:36;12.10;63.00
11700;DHT22;5906;51.660;6.674;2024-02-21T14:15:07;12.00;63.50
11700;DHT22;5906;51.660;6.674;2024-02-21T14:17:33;12.10;62.70
11700;DHT22;5906;51.660;6.674;2024-02-21T14:20:01;12.20;62.40
11700;DHT22;5906;51.660;6.674;2024-02-21T14:22:28;12.20;62.30
11700;DHT22;5906;51.660;6.674;2024-02-21T14:24:54;12.20;62.80
11700;DHT22;5906;51.660;6.674;2024-02-21T14:27:23;12.20;62.10
11700;DHT22;5906;51.660;6.674;2024-02-21T14:29:49;12.30;62.10
11700;DHT22;5906;51.660;6.674;2024-02-21T14:32:16;12.20;61.80
11700;DHT22;5906;51.660;6.674;2024-02-21T14:34:43;12.20;62.10
11700;DHT22;5906;51.660;6.674;2024-02-21T14:37:10;12.10;62.30
11700;DHT22;5906;51.660;6.674;2024-02-21T14:39:37;12.20;62.20
11700;DHT22;5906;51.660;6.674;2024-02-21T14:42:04;12.10;62.20
11700;DHT22;5906;51.660;6.674;2024-02-21T14:44:31;12.00;62.70
11700;DHT22;5906;51.660;6.674;2024-02-21T14:46:58;12.00;63.00
11700;DHT22;5906;51.660;6.674;2024-02-21T14:49:24;12.00;62.80
11700;DHT22;5906;51.660;6.674;2024-02-21T14:51:55;11.90;62.60
11700;DHT22;5906;51.660;6.674;2024-02-21T14:54:22;11.90;63.20
11700;DHT22;5906;51.660;6.674;2024-02-21T14:56:49;11.90;63.00
11700;DHT22;5906;51.660;6.674;2024-02-21T14:59:16;11.90;62.60
11700;DHT22;5906;51.660;6.674;2024-02-21T15:01:58;11.80;62.90
11700;DHT22;5906;51.660;6.674;2024-02-21T15:04:28;11.80;64.10
11700;DHT22;5906;51.660;6.674;2024-02-21T15:06:55;11.80;63.60
11700;DHT22;5906;51.660;6.674;2024-02-21T15:09:21;11.70;63.60
11700;DHT22;5906;51.660;6.674;2024-02-21T15:11:49;11.70;64.20
11700;DHT22;5906;51.660;6.674;2024-02-21T15:14:16;11.70;64.00
11700;DHT22;5906;51.660;6.674;2024-02-21T15:16:53;11.70;63.80
11700;DHT22;5906;51.660;6.674;2024-02-21T15:19:20;11.70;63.80
11700;DHT22;5906;51.660;6.674;2024-02-21T15:21:50;11.70;63.90
11700;DHT22;5906;51.660;6.674;2024-02-21T15:24:17;11.60;63.70
11700;DHT22;5906;51.660;6.674;2024-02-21T15:26:44;11.60;63.10
11700;DHT22;5906;51.660;6.674;2024-02-21T15:29:11;11.60;63.80
11700;DHT22;5906;51.660;6.674;2024-02-21T15:31:38;11.60;63.60
11700;DHT22;5906;51.660;6.674;2024-02-21T15:34:05;11.60;63.30
11700;DHT22;5906;51.660;6.674;2024-02-21T15:36:32;11.60;63.00
11700;DHT22;5906;51.660;6.674;2024-02-21T15:38:59;11.60;62.90
11700;DHT22;5906;51.660;6.674;2024-02-21T15:41:28;11.60;63.10
11700;DHT22;5906;51.660;6.674;2024-02-21T15:43:55;11.50;62.70
11700;DHT22;5906;51.660;6.674;2024-02-21T15:46:24;11.60;62.40
11700;DHT22;5906;51.660;6.674;2024-02-21T15:48:51;11.60;61.70
11700;DHT22;5906;51.660;6.674;2024-02-21T15:51:21;11.50;61.70
11700;DHT22;5906;51.660;6.674;2024-02-21T15:53:49;11.60;62.40
11700;DHT22;5906;51.660;6.674;2024-02-21T15:56:16;11.50;62.30
11700;DHT22;5906;51.660;6.674;2024-02-21T15:58:43;11.50;62.60
11700;DHT22;5906;51.660;6.674;2024-02-21T16:01:10;11.40;62.90
11700;DHT22;5906;51.660;6.674;2024-02-21T16:03:41;11.50;63.50
11700;DHT22;5906;51.660;6.674;2024-02-21T16:06:08;11.50;63.70
11700;DHT22;5906;51.660;6.674;2024-02-21T16:08:36;11.40;63.90